Blue Lake, Mississippi
Current Conditions -  °F | °C
As of 12:15 PM on Thursday 27 Nov 2014 (Local Time) from KRNV Reporting Station
Overcast Overcast  
Wind Chill: 38°   Ceiling: 3000
Heat Index: 43°   Visibility: 10mi
Dew Point: 32°   Wind: 8mph
Humidity: 65%   Direction: 340°NNW
Pressure: 30.52"   Gusts: NA
Location:  33.8731°N, 90.5512°W
Report Text: KRNV 271815Z AUTO 34007KT 10SM OVC030 06/00 A3052 RMK AO2 T00610000
Loading
Personal Weather Stations






























Interactive Weather Map New forecast layout! Learn more

10-Day Weather Forecast

Advertisements
Track Severe Weather on mobile